הכול
Richmond Airport (Richmond, Queensland) RCM מזג אוויר
|
Richmond, Queensland (RCM / YRMD)
שמים בהירים
רוחות קלות |
|
34 °C |
RCM Terminal Area Forecast
| Date | Time (AEST) | Flight Rules | Wind Dir. | Speed | Type | Height AGL (ft) | Visibility | Remarks | ||||||
|---|---|---|---|---|---|---|---|---|---|---|---|---|---|---|
| 05-ספט | 17:00 | VFR | 230° | 8 kt | Clouds and Visibility are OK | >= 6 miles | ||||||||
Recent RCM METAR history
| Date | Time (AEST) | Flight Rules | Wind Dir. | Speed | Type | Height AGL (ft) | Visibility | Temp (°C) | Temp (°F) | Dew Point (°C) | Dew Point (°F) | Rel. Humid. | Pressure | Density Altitude | Remarks |
|---|---|---|---|---|---|---|---|---|---|---|---|---|---|---|---|
| 05-ספט | 17:00 | VFR | 110° | 8 kt | 10000 meters | 34° | 93° | -2° | 28° | 10% | 1014 mb | 2,933 ft | |||
| 05-ספט | 16:00 | VFR | 140° | 11 kt | 10000 meters | 34° | 93° | -2° | 28° | 10% | 1014 mb | 2,933 ft | |||
| 05-ספט | 15:00 | VFR | 90° | 9 kt | 10000 meters | 34° | 93° | -3° | 26° | 9% | 1014 mb | 2,933 ft | Wind gusting to 19 KT | ||
| 05-ספט | 14:00 | VFR | 100° | 6 kt | 10000 meters | 34° | 93° | -2° | 28° | 10% | 1015 mb | 2,903 ft | |||
| 05-ספט | 13:00 | VFR | 10° | 5 kt | 10000 meters | 33° | 91° | -3° | 26° | 10% | 1016 mb | 2,754 ft | |||
| 05-ספט | 12:00 | VFR | 180° | 6 kt | 10000 meters | 31° | 87° | -1° | 30° | 13% | 1018 mb | 2,454 ft | |||
| 05-ספט | 11:00 | VFR | 330° | 7 kt | 10000 meters | 28° | 82° | 1° | 33° | 17% | 1019 mb | 2,065 ft | |||
| 05-ספט | 10:00 | VFR | 330° | 6 kt | 10000 meters | 27° | 80° | 2° | 35° | 20% | 1020 mb | 1,915 ft | |||
| 05-ספט | 09:00 | VFR | 330° | 8 kt | 10000 meters | 25° | 77° | 3° | 37° | 24% | 1020 mb | 1,675 ft | |||
| 05-ספט | 08:00 | VFR | 60° | 8 kt | 10000 meters | 21° | 69° | 5° | 41° | 35% | 1019 mb | 1,225 ft | |||
| 05-ספט | 07:00 | VFR | 70° | 7 kt | 10000 meters | 16° | 60° | 4° | 39° | 45% | 1019 mb | 625 ft | |||
| 05-ספט | 06:00 | VFR | 80° | 8 kt | 10000 meters | 15° | 59° | 3° | 37° | 44% | 1018 mb | 534 ft | |||
| 05-ספט | 05:00 | VFR | 80° | 8 kt | 10000 meters | 16° | 60° | 3° | 37° | 42% | 1017 mb | 684 ft | |||
| 05-ספט | 04:00 | VFR | 90° | 6 kt | 10000 meters | 17° | 62° | 2° | 35° | 36% | 1017 mb | 804 ft | |||
| 05-ספט | 03:00 | VFR | 60° | 6 kt | 10000 meters | 18° | 64° | 2° | 35° | 34% | 1017 mb | 924 ft | |||
| 05-ספט | 02:00 | VFR | 60° | 7 kt | 10000 meters | 19° | 66° | 2° | 35° | 32% | 1017 mb | 1,044 ft | |||
| 05-ספט | 01:00 | VFR | 60° | 8 kt | 10000 meters | 20° | 68° | 2° | 35° | 30% | 1018 mb | 1,134 ft | |||
| 05-ספט | 00:00 | VFR | 40° | 7 kt | 10000 meters | 21° | 69° | 3° | 37° | 30% | 1018 mb | 1,254 ft | |||
| 04-ספט | 23:00 | VFR | 60° | 6 kt | 10000 meters | 22° | 71° | 3° | 37° | 29% | 1018 mb | 1,374 ft | |||
| 04-ספט | 22:00 | VFR | 60° | 7 kt | 10000 meters | 23° | 73° | 3° | 37° | 27% | 1018 mb | 1,494 ft | |||
| 04-ספט | 21:00 | VFR | 70° | 7 kt | 10000 meters | 25° | 77° | 3° | 37° | 24% | 1017 mb | 1,764 ft | |||
| 04-ספט | 20:00 | VFR | 90° | 10 kt | 10000 meters | 26° | 78° | 2° | 35° | 21% | 1016 mb | 1,914 ft | |||
| 04-ספט | 19:00 | VFR | 90° | 6 kt | 10000 meters | 28° | 82° | 1° | 33° | 17% | 1015 mb | 2,183 ft | |||
| 04-ספט | 18:00 | VFR | 70° | 5 kt | 10000 meters | 32° | 89° | -1° | 30° | 12% | 1015 mb | 2,663 ft |
כניסה לאתר
| אין תמיכה בדפדפן שלך. שדרג את הדפדפן שלך |
